createdAt,value
2023-01-19T00:00:59.959Z,62.02
2023-01-19T00:03:33.559Z,62.21
2023-01-19T00:06:09.980Z,62.12
2023-01-19T00:08:44.857Z,62.07
2023-01-19T00:11:18.103Z,62.20
2023-01-19T00:13:51.183Z,62.10
2023-01-19T00:16:24.094Z,62.20
2023-01-19T00:18:56.475Z,62.12
2023-01-19T00:21:28.775Z,62.04
2023-01-19T00:24:00.986Z,61.97
2023-01-19T00:26:33.200Z,62.02
2023-01-19T00:29:06.978Z,62.27
2023-01-19T00:31:39.841Z,62.21
2023-01-19T00:34:12.081Z,62.26
2023-01-19T00:36:44.642Z,62.24
2023-01-19T00:39:16.958Z,62.40
2023-01-19T00:42:06.541Z,62.36
2023-01-19T00:44:38.781Z,62.32
2023-01-19T00:47:11.011Z,62.41
2023-01-19T00:49:43.409Z,62.38
2023-01-19T00:52:15.581Z,62.36
2023-01-19T00:54:47.767Z,62.44
2023-01-19T00:57:20.360Z,62.39
2023-01-19T00:59:52.670Z,62.59
2023-01-19T01:02:25.050Z,62.59
2023-01-19T01:04:57.423Z,62.59
2023-01-19T01:07:30.136Z,62.56
2023-01-19T01:10:02.333Z,62.55
2023-01-19T01:12:34.545Z,62.62
2023-01-19T01:15:09.115Z,62.47
2023-01-19T01:17:47.346Z,62.54
2023-01-19T01:20:22.570Z,62.66
2023-01-19T01:22:56.747Z,62.80
2023-01-19T01:25:37.609Z,62.81
2023-01-19T01:28:11.483Z,62.93
2023-01-19T01:30:44.205Z,62.94
2023-01-19T01:33:16.440Z,62.87
2023-01-19T01:36:10.258Z,63.08
2023-01-19T01:38:42.843Z,62.96
2023-01-19T01:41:15.918Z,62.88
2023-01-19T01:43:51.004Z,62.87
2023-01-19T01:46:23.665Z,62.81
2023-01-19T01:49:01.906Z,62.76
2023-01-19T01:51:39.794Z,62.86
2023-01-19T01:54:18.026Z,62.77
2023-01-19T01:56:52.720Z,63.09
2023-01-19T01:59:28.472Z,62.86
2023-01-19T02:02:21.789Z,63.01
2023-01-19T02:04:59.970Z,62.83
2023-01-19T02:07:56.514Z,63.09
2023-01-19T02:10:46.251Z,63.36
2023-01-19T02:13:19.762Z,63.36
2023-01-19T02:15:53.864Z,63.38
2023-01-19T02:18:29.051Z,63.51
2023-01-19T02:21:10.925Z,63.59
2023-01-19T02:23:46.462Z,63.61
2023-01-19T02:26:22.018Z,63.51
2023-01-19T02:28:58.582Z,63.44
2023-01-19T02:31:34.149Z,63.46
2023-01-19T02:34:07.962Z,63.63
2023-01-19T02:36:44.400Z,63.47
2023-01-19T02:39:20.505Z,63.48
2023-01-19T02:41:56.091Z,63.42
2023-01-19T02:44:31.290Z,63.46
2023-01-19T02:47:05.337Z,63.41
2023-01-19T02:49:37.843Z,63.44
2023-01-19T02:52:16.556Z,63.53
2023-01-19T02:55:00.373Z,63.43
2023-01-19T02:57:53.961Z,63.37
2023-01-19T03:00:38.456Z,63.55
2023-01-19T03:03:27.205Z,63.71
2023-01-19T03:06:06.818Z,63.71
2023-01-19T03:08:49.615Z,63.71
2023-01-19T03:11:22.041Z,64.19
2023-01-19T03:14:00.977Z,64.42
2023-01-19T03:16:40.960Z,64.32
2023-01-19T03:19:20.274Z,64.29
2023-01-19T03:21:56.620Z,64.21
2023-01-19T03:24:36.901Z,64.33
2023-01-19T03:27:13.401Z,64.30
2023-01-19T03:29:52.942Z,64.16
2023-01-19T03:32:30.320Z,64.32
2023-01-19T03:35:06.994Z,64.25
2023-01-19T03:37:42.375Z,64.14
2023-01-19T03:40:15.830Z,64.28
2023-01-19T03:42:48.764Z,64.32
2023-01-19T03:45:22.766Z,64.27
2023-01-19T03:47:55.935Z,64.42
2023-01-19T03:50:30.781Z,64.28
2023-01-19T03:53:10.686Z,64.42
2023-01-19T03:55:46.176Z,64.41
2023-01-19T03:58:18.840Z,64.51
2023-01-19T04:00:51.120Z,64.42
2023-01-19T04:03:23.442Z,64.55
2023-01-19T04:05:57.685Z,64.47
2023-01-19T04:08:29.978Z,64.54
2023-01-19T04:11:02.502Z,64.64
2023-01-19T04:13:35.072Z,64.64
2023-01-19T04:16:09.055Z,64.60
2023-01-19T04:18:42.286Z,64.51
2023-01-19T04:21:14.530Z,64.54
2023-01-19T04:23:46.965Z,64.64
2023-01-19T04:26:19.246Z,64.68
2023-01-19T04:28:51.653Z,64.63
2023-01-19T04:31:23.888Z,64.64
2023-01-19T04:33:56.978Z,64.59
2023-01-19T04:36:29.409Z,64.83
2023-01-19T04:39:01.693Z,64.85
2023-01-19T04:41:33.921Z,64.85
2023-01-19T04:44:06.577Z,64.88
2023-01-19T04:46:38.862Z,64.97
2023-01-19T04:49:11.654Z,65.03
2023-01-19T04:51:43.917Z,64.99
2023-01-19T04:54:16.484Z,65.08
2023-01-19T04:56:48.907Z,65.06
2023-01-19T04:59:21.674Z,65.09
2023-01-19T05:01:54.059Z,65.18
2023-01-19T05:04:26.909Z,65.21
2023-01-19T05:06:59.454Z,65.21
2023-01-19T05:09:31.672Z,65.18
2023-01-19T05:12:03.901Z,65.36
2023-01-19T05:14:36.111Z,65.44
2023-01-19T05:17:08.619Z,65.55
2023-01-19T05:19:41.161Z,65.81
2023-01-19T05:22:14.119Z,65.85
2023-01-19T05:24:46.293Z,65.84
2023-01-19T05:27:18.664Z,66.77
2023-01-19T05:29:50.862Z,67.05
2023-01-19T05:32:23.084Z,66.75
2023-01-19T05:34:55.391Z,66.51
2023-01-19T05:37:27.788Z,66.36
2023-01-19T05:40:00.154Z,66.30
2023-01-19T05:42:33.023Z,66.47
2023-01-19T05:45:05.713Z,66.36
2023-01-19T05:47:37.993Z,66.29
2023-01-19T05:50:11.988Z,66.23
2023-01-19T05:52:44.769Z,66.27
2023-01-19T05:55:17.480Z,66.13
2023-01-19T05:57:49.837Z,66.24
2023-01-19T06:00:22.968Z,66.35
2023-01-19T06:02:55.364Z,66.34
2023-01-19T06:05:27.683Z,66.23
2023-01-19T06:08:00.664Z,66.08
2023-01-19T06:10:32.836Z,66.10
2023-01-19T06:13:05.242Z,66.12
2023-01-19T06:15:37.710Z,66.11
2023-01-19T06:18:10.128Z,66.13
2023-01-19T06:20:42.393Z,66.14
2023-01-19T06:23:14.846Z,66.08
2023-01-19T06:25:47.149Z,66.08
2023-01-19T06:28:19.890Z,66.11
2023-01-19T06:30:53.597Z,65.96
2023-01-19T06:33:27.781Z,66.09
2023-01-19T06:36:00.100Z,66.18
2023-01-19T06:38:33.062Z,66.24
2023-01-19T06:41:05.747Z,66.18
2023-01-19T06:43:38.046Z,66.21
2023-01-19T06:46:10.363Z,66.15
2023-01-19T06:48:42.616Z,66.31
2023-01-19T06:51:15.063Z,66.31
2023-01-19T06:53:47.902Z,66.39
2023-01-19T06:56:20.264Z,66.36
2023-01-19T06:58:53.392Z,66.32
2023-01-19T07:01:25.792Z,66.17
2023-01-19T07:03:58.171Z,66.49
2023-01-19T07:06:30.397Z,67.00
2023-01-19T07:09:07.195Z,67.48
2023-01-19T07:11:39.405Z,67.77
2023-01-19T07:14:11.986Z,67.83
2023-01-19T07:16:44.340Z,67.71
2023-01-19T07:19:16.839Z,67.47
2023-01-19T07:21:49.269Z,67.42
2023-01-19T07:24:21.968Z,67.10
2023-01-19T07:26:54.221Z,66.89
2023-01-19T07:29:26.811Z,66.86
2023-01-19T07:31:59.117Z,66.69
2023-01-19T07:34:31.598Z,66.26
2023-01-19T07:37:03.920Z,66.23
2023-01-19T07:39:36.873Z,66.11
2023-01-19T07:42:09.889Z,65.71
2023-01-19T07:44:42.177Z,65.64
2023-01-19T07:47:14.505Z,65.34
2023-01-19T07:49:46.786Z,65.03
2023-01-19T07:52:19.350Z,64.52
2023-01-19T07:54:51.828Z,64.31
2023-01-19T07:57:24.260Z,63.60
2023-01-19T07:59:56.649Z,63.79
2023-01-19T08:02:28.969Z,63.66
2023-01-19T08:05:01.236Z,62.98
2023-01-19T08:07:34.097Z,62.92
2023-01-19T08:10:07.004Z,62.69
2023-01-19T08:12:39.290Z,62.47
2023-01-19T08:15:13.138Z,61.99
2023-01-19T08:17:45.544Z,61.84
2023-01-19T08:20:18.820Z,61.79
2023-01-19T08:22:59.991Z,60.74
2023-01-19T08:25:38.360Z,60.81
2023-01-19T08:28:12.428Z,60.84
2023-01-19T08:30:45.291Z,60.98
2023-01-19T08:33:17.971Z,60.67
2023-01-19T08:35:53.104Z,60.28
2023-01-19T08:38:25.460Z,60.00
2023-01-19T08:40:57.709Z,59.04
2023-01-19T08:43:30.122Z,59.26
2023-01-19T08:46:03.807Z,59.19
2023-01-19T08:48:38.688Z,58.36
2023-01-19T08:51:12.239Z,58.20
2023-01-19T08:53:45.019Z,58.18
2023-01-19T08:56:20.349Z,57.86
2023-01-19T08:59:03.500Z,57.50
2023-01-19T09:01:41.586Z,57.17
2023-01-19T09:04:13.977Z,57.02
2023-01-19T09:06:46.297Z,56.23
2023-01-19T09:09:18.773Z,56.33
2023-01-19T09:11:51.106Z,55.78
2023-01-19T09:14:23.364Z,55.72
2023-01-19T09:16:56.362Z,54.89
2023-01-19T09:19:28.752Z,55.27
2023-01-19T09:22:01.066Z,54.65
2023-01-19T09:24:35.135Z,54.53
2023-01-19T09:27:07.571Z,54.72
2023-01-19T09:29:39.853Z,54.48
2023-01-19T09:32:12.190Z,53.98
2023-01-19T09:34:44.662Z,53.86
2023-01-19T09:37:17.394Z,53.46
2023-01-19T09:39:50.079Z,53.91
2023-01-19T09:42:32.516Z,53.00
2023-01-19T09:45:06.481Z,53.40
2023-01-19T09:47:40.280Z,52.42
2023-01-19T09:50:19.398Z,52.76
2023-01-19T09:53:01.538Z,52.67
2023-01-19T09:55:34.281Z,52.10
2023-01-19T09:58:11.255Z,51.78
2023-01-19T10:00:47.884Z,51.09
2023-01-19T10:03:21.464Z,50.58
2023-01-19T10:06:01.213Z,51.17
2023-01-19T10:08:40.368Z,50.47
2023-01-19T10:11:31.851Z,50.46
2023-01-19T10:14:17.906Z,50.51
2023-01-19T10:17:00.166Z,50.69
2023-01-19T10:19:38.049Z,50.91
2023-01-19T10:22:21.670Z,50.88
2023-01-19T10:24:57.358Z,50.60
2023-01-19T10:27:34.326Z,50.45
2023-01-19T10:30:10.299Z,50.19
2023-01-19T10:32:44.610Z,50.49
2023-01-19T10:35:24.563Z,50.11
2023-01-19T10:38:00.240Z,50.07
2023-01-19T10:40:34.715Z,49.20
2023-01-19T10:43:51.055Z,48.54
2023-01-19T10:46:34.773Z,48.30
2023-01-19T10:49:08.348Z,48.65
2023-01-19T10:51:49.924Z,48.08
2023-01-19T10:54:24.463Z,48.33
2023-01-19T10:56:59.487Z,48.22
2023-01-19T10:59:38.310Z,48.38
2023-01-19T11:02:21.227Z,47.95
2023-01-19T11:04:56.281Z,47.55
2023-01-19T11:07:32.687Z,47.31
2023-01-19T11:10:25.092Z,47.22
2023-01-19T11:13:04.200Z,46.39
2023-01-19T11:15:43.939Z,46.20
2023-01-19T11:18:32.975Z,45.55
2023-01-19T11:21:08.384Z,45.99
2023-01-19T11:23:46.703Z,45.62
2023-01-19T11:26:29.103Z,45.55
2023-01-19T11:29:04.510Z,45.46
2023-01-19T11:31:39.338Z,45.01
2023-01-19T11:34:33.178Z,45.50
2023-01-19T11:37:25.026Z,45.23
2023-01-19T11:39:59.949Z,44.76
2023-01-19T11:42:36.631Z,44.27
2023-01-19T11:45:16.620Z,44.57
2023-01-19T11:47:52.611Z,43.79
2023-01-19T11:50:31.042Z,43.71
2023-01-19T11:53:07.378Z,43.94
2023-01-19T11:55:48.279Z,43.86
2023-01-19T11:58:21.797Z,43.20
2023-01-19T12:00:58.180Z,43.82
2023-01-19T12:03:34.283Z,43.65
2023-01-19T12:06:13.199Z,43.95
2023-01-19T12:08:49.342Z,44.04
2023-01-19T12:11:24.627Z,43.95
2023-01-19T12:13:57.052Z,43.91
2023-01-19T12:16:33.002Z,43.25
2023-01-19T12:19:12.379Z,43.61
2023-01-19T12:21:48.190Z,43.22
2023-01-19T12:24:24.833Z,43.18
2023-01-19T12:27:00.095Z,43.32
2023-01-19T12:29:36.045Z,42.86
2023-01-19T12:32:37.005Z,43.00
2023-01-19T12:35:47.369Z,43.16
2023-01-19T12:38:41.464Z,42.54
2023-01-19T12:41:24.750Z,42.88
2023-01-19T12:44:34.284Z,42.85
2023-01-19T12:50:15.210Z,42.83
2023-01-19T12:52:57.229Z,42.61
2023-01-19T12:55:33.398Z,42.54
2023-01-19T12:58:08.583Z,42.36
2023-01-19T13:00:44.017Z,42.57
2023-01-19T13:03:48.262Z,42.65
2023-01-19T13:06:20.544Z,42.53
2023-01-19T13:09:03.185Z,42.80
2023-01-19T13:11:35.533Z,42.52
2023-01-19T13:14:36.519Z,42.77
2023-01-19T13:17:27.282Z,42.66
2023-01-19T13:20:29.648Z,42.16
2023-01-19T13:23:20.118Z,42.30
2023-01-19T13:26:01.433Z,41.88
2023-01-19T13:28:40.703Z,41.46
2023-01-19T13:31:14.399Z,41.40
2023-01-19T13:33:52.530Z,41.61
2023-01-19T13:36:30.529Z,41.81
2023-01-19T13:39:06.598Z,42.00
2023-01-19T13:41:42.490Z,41.80
2023-01-19T13:44:20.865Z,41.94
2023-01-19T13:46:54.699Z,41.78
2023-01-19T13:49:31.861Z,42.17
2023-01-19T13:52:17.080Z,41.88
2023-01-19T13:54:54.203Z,41.82
2023-01-19T13:57:30.789Z,41.84
2023-01-19T14:00:19.167Z,41.67
2023-01-19T14:03:14.933Z,41.70
2023-01-19T14:05:51.401Z,41.88
2023-01-19T14:08:25.821Z,41.68
2023-01-19T14:11:05.109Z,41.62
2023-01-19T14:13:41.761Z,41.75
2023-01-19T14:16:18.655Z,41.88
2023-01-19T14:19:02.561Z,41.50
2023-01-19T14:21:42.738Z,41.61
2023-01-19T14:24:20.586Z,41.61
2023-01-19T14:26:54.874Z,41.61
2023-01-19T14:29:32.603Z,41.65
2023-01-19T14:32:17.434Z,41.82
2023-01-19T14:34:51.883Z,41.72
2023-01-19T14:37:27.322Z,41.82
2023-01-19T14:40:04.872Z,41.75
2023-01-19T14:42:39.842Z,41.87
2023-01-19T14:45:20.905Z,41.95
2023-01-19T14:47:59.706Z,41.91
2023-01-19T14:50:35.805Z,42.14
2023-01-19T14:53:16.267Z,42.21
2023-01-19T14:55:51.002Z,42.06
2023-01-19T14:58:26.425Z,42.14
2023-01-19T15:00:58.794Z,42.15
2023-01-19T15:03:44.259Z,42.33
2023-01-19T15:06:16.869Z,42.43
2023-01-19T15:08:53.428Z,42.61
2023-01-19T15:11:30.414Z,42.45
2023-01-19T15:14:03.660Z,42.34
2023-01-19T15:16:37.265Z,42.79
2023-01-19T15:19:11.075Z,42.70
2023-01-19T15:21:45.381Z,42.86
2023-01-19T15:24:18.170Z,42.84
2023-01-19T15:26:50.685Z,42.76
2023-01-19T15:29:27.264Z,43.04
2023-01-19T15:31:59.605Z,42.89
2023-01-19T15:34:31.964Z,43.04
2023-01-19T15:37:04.533Z,43.09
2023-01-19T15:39:36.988Z,43.07
2023-01-19T15:42:14.140Z,43.30
2023-01-19T15:44:46.563Z,43.27
2023-01-19T15:47:18.847Z,43.32
2023-01-19T15:49:51.081Z,43.42
2023-01-19T15:52:23.473Z,43.35
2023-01-19T15:54:55.719Z,43.45
2023-01-19T15:57:28.161Z,43.50
2023-01-19T16:00:00.462Z,43.60
2023-01-19T16:02:33.505Z,43.85
2023-01-19T16:05:06.171Z,43.62
2023-01-19T16:07:38.505Z,43.91
2023-01-19T16:10:13.057Z,44.00
2023-01-19T16:12:46.704Z,43.95
2023-01-19T16:15:19.892Z,43.96
2023-01-19T16:17:54.640Z,43.93
2023-01-19T16:20:26.909Z,44.18
2023-01-19T16:23:13.875Z,44.19
2023-01-19T16:25:55.995Z,44.29
2023-01-19T16:28:28.775Z,44.03
2023-01-19T16:31:01.157Z,44.34
2023-01-19T16:33:33.399Z,44.36
2023-01-19T16:36:23.750Z,44.32
2023-01-19T16:38:59.650Z,44.56
2023-01-19T16:41:30.364Z,44.58
2023-01-19T16:44:02.659Z,44.54
2023-01-19T16:46:38.487Z,44.80
2023-01-19T16:49:15.986Z,44.81
2023-01-19T16:51:49.057Z,44.84
2023-01-19T16:54:26.033Z,44.97
2023-01-19T16:56:59.428Z,44.88
2023-01-19T16:59:31.774Z,45.06
2023-01-19T17:02:04.474Z,45.09
2023-01-19T17:04:37.122Z,45.04
2023-01-19T17:07:09.545Z,45.18
2023-01-19T17:09:42.031Z,45.33
2023-01-19T17:12:14.421Z,45.31
2023-01-19T17:14:47.620Z,45.51
2023-01-19T17:17:19.992Z,45.48
2023-01-19T17:19:52.350Z,45.63
2023-01-19T17:22:24.905Z,45.67
2023-01-19T17:24:57.373Z,45.76
2023-01-19T17:27:29.653Z,45.88
2023-01-19T17:30:01.860Z,45.91
2023-01-19T17:32:33.892Z,46.01
2023-01-19T17:35:07.186Z,46.18
2023-01-19T17:37:39.540Z,46.11
2023-01-19T17:40:14.004Z,46.23
2023-01-19T17:42:46.627Z,46.28
2023-01-19T17:45:19.177Z,46.34
2023-01-19T17:47:52.818Z,46.41
2023-01-19T17:50:25.162Z,46.45
2023-01-19T17:52:58.467Z,46.50
2023-01-19T17:55:30.783Z,46.56
2023-01-19T17:58:03.178Z,46.64
2023-01-19T18:00:35.565Z,46.80
2023-01-19T18:03:07.866Z,46.80
2023-01-19T18:05:40.154Z,46.90
2023-01-19T18:08:12.520Z,47.04
2023-01-19T18:10:44.734Z,47.06
2023-01-19T18:13:17.037Z,47.08
2023-01-19T18:15:49.457Z,47.19
2023-01-19T18:18:21.810Z,47.23
2023-01-19T18:20:54.438Z,47.30
2023-01-19T18:23:26.607Z,47.41
2023-01-19T18:26:03.277Z,47.40
2023-01-19T18:28:35.557Z,47.45
2023-01-19T18:31:10.302Z,47.56
2023-01-19T18:33:43.431Z,47.59
2023-01-19T18:36:16.345Z,47.67
2023-01-19T18:38:50.136Z,47.76
2023-01-19T18:41:23.748Z,47.75
2023-01-19T18:43:59.832Z,47.82
2023-01-19T18:46:32.210Z,47.97
2023-01-19T18:49:06.828Z,48.01
2023-01-19T18:51:40.625Z,48.01
2023-01-19T18:54:14.003Z,48.19
2023-01-19T18:56:46.257Z,48.25
2023-01-19T18:59:18.593Z,48.30
2023-01-19T19:01:50.970Z,48.43
2023-01-19T19:04:23.515Z,48.64
2023-01-19T19:06:55.883Z,48.76
2023-01-19T19:09:28.306Z,48.80
2023-01-19T19:12:00.807Z,48.89
2023-01-19T19:14:33.290Z,49.07
2023-01-19T19:17:05.557Z,49.13
2023-01-19T19:19:37.876Z,49.29
2023-01-19T19:22:10.309Z,49.34
2023-01-19T19:24:42.740Z,49.47
2023-01-19T19:27:15.124Z,49.51
2023-01-19T19:29:48.983Z,49.66
2023-01-19T19:32:21.560Z,49.69
2023-01-19T19:34:55.865Z,49.79
2023-01-19T19:37:29.564Z,49.94
2023-01-19T19:40:01.890Z,49.90
2023-01-19T19:42:36.686Z,50.12
2023-01-19T19:45:10.985Z,50.08
2023-01-19T19:47:44.076Z,50.17
2023-01-19T19:50:16.815Z,50.25
2023-01-19T19:52:49.086Z,50.30
2023-01-19T19:55:21.585Z,50.52
2023-01-19T19:57:54.993Z,50.59
2023-01-19T20:00:27.600Z,50.68
2023-01-19T20:03:00.041Z,50.70
2023-01-19T20:05:32.506Z,50.87
2023-01-19T20:08:04.724Z,50.81
2023-01-19T20:10:37.632Z,50.91
2023-01-19T20:13:10.024Z,51.00
2023-01-19T20:15:42.594Z,50.98
2023-01-19T20:18:14.904Z,51.05
2023-01-19T20:20:47.304Z,51.16
2023-01-19T20:23:20.143Z,51.18
2023-01-19T20:25:52.411Z,51.19
2023-01-19T20:28:24.842Z,51.15
2023-01-19T20:30:57.071Z,50.98
2023-01-19T20:33:29.384Z,51.18
2023-01-19T20:36:01.658Z,51.21
2023-01-19T20:38:34.284Z,51.22
2023-01-19T20:41:08.269Z,51.31
2023-01-19T20:43:40.911Z,51.31
2023-01-19T20:46:13.689Z,51.39
2023-01-19T20:48:50.866Z,51.33
2023-01-19T20:51:24.372Z,51.48
2023-01-19T20:53:56.612Z,51.47
2023-01-19T20:56:28.869Z,51.64
2023-01-19T20:59:02.898Z,51.71
2023-01-19T21:01:35.474Z,51.68
2023-01-19T21:04:08.440Z,51.81
2023-01-19T21:06:42.148Z,51.85
2023-01-19T21:09:14.798Z,51.78
2023-01-19T21:11:47.282Z,51.84
2023-01-19T21:14:19.615Z,51.83
2023-01-19T21:16:51.918Z,52.09
2023-01-19T21:19:24.352Z,52.03
2023-01-19T21:21:56.515Z,52.02
2023-01-19T21:24:30.624Z,52.09
2023-01-19T21:27:03.027Z,52.16
2023-01-19T21:29:35.354Z,52.20
2023-01-19T21:32:08.426Z,52.29
2023-01-19T21:34:40.907Z,52.21
2023-01-19T21:37:13.249Z,52.34
2023-01-19T21:39:45.705Z,52.31
2023-01-19T21:42:18.543Z,52.51
2023-01-19T21:44:51.674Z,52.45
2023-01-19T21:47:24.001Z,52.43
2023-01-19T21:49:56.395Z,52.42
2023-01-19T21:52:28.856Z,52.47
2023-01-19T21:55:01.125Z,52.61
2023-01-19T21:57:33.339Z,52.54
2023-01-19T22:00:06.976Z,52.43
2023-01-19T22:02:39.462Z,52.54
2023-01-19T22:05:13.100Z,52.61
2023-01-19T22:07:45.533Z,52.78
2023-01-19T22:10:18.588Z,52.77
2023-01-19T22:12:50.864Z,52.82
2023-01-19T22:15:23.147Z,52.71
2023-01-19T22:17:55.430Z,52.77
2023-01-19T22:20:27.666Z,52.91
2023-01-19T22:23:00.022Z,53.09
2023-01-19T22:25:33.438Z,53.01
2023-01-19T22:28:05.845Z,52.97
2023-01-19T22:30:38.049Z,53.14
2023-01-19T22:33:10.366Z,53.14
2023-01-19T22:35:42.749Z,53.20
2023-01-19T22:38:15.245Z,53.20
2023-01-19T22:40:47.538Z,53.26
2023-01-19T22:43:20.074Z,53.24
2023-01-19T22:45:52.343Z,53.39
2023-01-19T22:48:24.631Z,53.40
2023-01-19T22:50:59.929Z,53.55
2023-01-19T22:53:33.474Z,53.60
2023-01-19T22:56:12.869Z,53.55
2023-01-19T22:58:46.152Z,53.51
2023-01-19T23:01:20.067Z,53.60
2023-01-19T23:03:52.964Z,53.72
2023-01-19T23:06:27.128Z,53.79
2023-01-19T23:09:01.287Z,53.72
2023-01-19T23:11:37.049Z,53.84
2023-01-19T23:14:12.496Z,53.87
2023-01-19T23:16:47.143Z,53.82
2023-01-19T23:19:20.376Z,53.86
2023-01-19T23:21:54.757Z,54.07
2023-01-19T23:24:27.114Z,53.99
2023-01-19T23:27:00.543Z,54.07
2023-01-19T23:29:32.870Z,54.00
2023-01-19T23:32:05.423Z,53.93
2023-01-19T23:34:37.750Z,53.98
2023-01-19T23:37:10.035Z,54.07
2023-01-19T23:39:42.707Z,54.13
2023-01-19T23:42:15.084Z,54.11
2023-01-19T23:44:47.401Z,54.10
2023-01-19T23:47:19.698Z,54.24
2023-01-19T23:49:51.904Z,54.18
2023-01-19T23:52:24.397Z,54.13
2023-01-19T23:54:56.687Z,54.35
2023-01-19T23:57:29.032Z,54.26
